createdAt,value
2023-05-07T00:01:31.117Z,14.70
2023-05-07T00:03:58.043Z,14.70
2023-05-07T00:06:25.119Z,14.70
2023-05-07T00:08:51.917Z,14.80
2023-05-07T00:11:18.884Z,14.80
2023-05-07T00:13:45.694Z,14.80
2023-05-07T00:16:12.418Z,14.80
2023-05-07T00:18:39.307Z,14.80
2023-05-07T00:21:06.215Z,14.90
2023-05-07T00:23:33.028Z,14.80
2023-05-07T00:25:59.767Z,14.90
2023-05-07T00:28:26.586Z,14.90
2023-05-07T00:30:53.896Z,14.90
2023-05-07T00:33:21.893Z,14.90
2023-05-07T00:35:48.888Z,14.80
2023-05-07T00:38:15.882Z,14.80
2023-05-07T00:40:42.652Z,14.80
2023-05-07T00:43:09.976Z,14.80
2023-05-07T00:45:36.871Z,14.80
2023-05-07T00:48:04.521Z,14.70
2023-05-07T00:50:32.277Z,14.70
2023-05-07T00:53:00.561Z,14.70
2023-05-07T00:55:27.505Z,14.70
2023-05-07T00:57:54.668Z,14.60
2023-05-07T01:00:22.110Z,14.50
2023-05-07T01:02:49.177Z,14.50
2023-05-07T01:05:19.479Z,14.40
2023-05-07T01:07:47.586Z,14.30
2023-05-07T01:10:14.973Z,14.30
2023-05-07T01:12:43.548Z,14.30
2023-05-07T01:15:11.019Z,14.30
2023-05-07T01:17:41.839Z,14.30
2023-05-07T01:20:15.081Z,14.30
2023-05-07T01:22:44.718Z,14.30
2023-05-07T01:25:12.186Z,14.30
2023-05-07T01:27:43.275Z,14.40
2023-05-07T01:30:10.866Z,14.40
2023-05-07T01:32:59.201Z,14.40
2023-05-07T01:35:30.535Z,14.40
2023-05-07T01:37:57.956Z,14.40
2023-05-07T01:40:26.741Z,14.40
2023-05-07T01:42:55.177Z,14.40
2023-05-07T01:45:23.328Z,14.40
2023-05-07T01:47:51.220Z,14.30
2023-05-07T01:50:20.317Z,14.30
2023-05-07T01:52:48.178Z,14.30
2023-05-07T01:55:14.893Z,14.30
2023-05-07T01:57:42.367Z,14.30
2023-05-07T02:00:10.284Z,14.30
2023-05-07T02:02:43.786Z,14.30
2023-05-07T02:05:21.640Z,14.30
2023-05-07T02:07:55.986Z,14.20
2023-05-07T02:10:23.236Z,14.20
2023-05-07T02:12:50.086Z,14.20
2023-05-07T02:15:17.004Z,14.10
2023-05-07T02:18:07.408Z,14.20
2023-05-07T02:20:35.547Z,14.10
2023-05-07T02:23:02.953Z,14.00
2023-05-07T02:25:31.441Z,13.90
2023-05-07T02:27:58.798Z,13.90
2023-05-07T02:30:38.261Z,13.80
2023-05-07T02:33:05.248Z,13.60
2023-05-07T02:35:32.168Z,13.60
2023-05-07T02:37:59.117Z,13.60
2023-05-07T02:40:26.664Z,13.60
2023-05-07T02:42:53.612Z,13.60
2023-05-07T02:45:20.412Z,13.60
2023-05-07T02:47:49.481Z,13.60
2023-05-07T02:50:16.329Z,13.60
2023-05-07T02:52:43.258Z,13.60
2023-05-07T02:55:10.240Z,13.50
2023-05-07T02:57:37.028Z,13.50
2023-05-07T03:00:15.088Z,13.40
2023-05-07T03:02:48.229Z,13.30
2023-05-07T03:05:15.720Z,13.20
2023-05-07T03:07:46.184Z,13.30
2023-05-07T03:10:14.063Z,13.20
2023-05-07T03:12:40.999Z,13.20
2023-05-07T03:15:09.975Z,13.10
2023-05-07T03:17:36.938Z,13.00
2023-05-07T03:20:04.058Z,13.10
2023-05-07T03:22:30.984Z,13.00
2023-05-07T03:24:57.826Z,13.10
2023-05-07T03:27:24.530Z,13.10
2023-05-07T03:29:53.311Z,13.20
2023-05-07T03:32:20.802Z,13.20
2023-05-07T03:34:48.374Z,13.30
2023-05-07T03:37:15.425Z,13.30
2023-05-07T03:39:43.390Z,13.40
2023-05-07T03:42:10.881Z,13.40
2023-05-07T03:44:38.412Z,13.40
2023-05-07T03:47:05.905Z,13.40
2023-05-07T03:49:33.006Z,13.40
2023-05-07T03:52:00.404Z,13.40
2023-05-07T03:54:27.470Z,13.50
2023-05-07T03:56:54.284Z,13.50
2023-05-07T03:59:21.791Z,13.40
2023-05-07T04:01:49.974Z,13.40
2023-05-07T04:04:19.144Z,13.40
2023-05-07T04:06:46.252Z,13.40
2023-05-07T04:09:13.621Z,13.40
2023-05-07T04:11:43.883Z,13.30
2023-05-07T04:14:11.841Z,13.30
2023-05-07T04:16:39.335Z,13.30
2023-05-07T04:19:08.378Z,13.30
2023-05-07T04:21:35.680Z,13.30
2023-05-07T04:24:04.837Z,13.30
2023-05-07T04:26:32.357Z,13.20
2023-05-07T04:29:00.213Z,13.20
2023-05-07T04:31:31.852Z,13.20
2023-05-07T04:33:59.672Z,13.20
2023-05-07T04:36:28.538Z,13.20
2023-05-07T04:39:00.611Z,13.30
2023-05-07T04:41:27.767Z,13.30
2023-05-07T04:43:54.664Z,13.40
2023-05-07T04:46:25.357Z,13.50
2023-05-07T04:48:53.048Z,13.50
2023-05-07T04:51:19.698Z,13.50
2023-05-07T04:53:46.462Z,13.60
2023-05-07T04:56:13.590Z,13.60
2023-05-07T04:58:43.110Z,13.60
2023-05-07T05:01:10.651Z,13.70
2023-05-07T05:03:38.928Z,13.70
2023-05-07T05:06:06.529Z,13.80
2023-05-07T05:08:34.712Z,13.90
2023-05-07T05:11:03.719Z,13.90
2023-05-07T05:13:34.730Z,13.90
2023-05-07T05:16:07.212Z,14.00
2023-05-07T05:18:34.201Z,14.00
2023-05-07T05:21:01.124Z,14.20
2023-05-07T05:23:28.783Z,14.20
2023-05-07T05:25:59.425Z,14.20
2023-05-07T05:28:29.242Z,14.40
2023-05-07T05:30:56.621Z,14.50
2023-05-07T05:33:24.738Z,14.50
2023-05-07T05:35:52.004Z,14.60
2023-05-07T05:38:18.995Z,14.80
2023-05-07T05:40:46.267Z,14.80
2023-05-07T05:43:13.236Z,14.90
2023-05-07T05:45:40.057Z,15.00
2023-05-07T05:48:07.518Z,15.10
2023-05-07T05:50:34.275Z,15.20
2023-05-07T05:53:01.393Z,15.30
2023-05-07T05:55:29.440Z,15.50
2023-05-07T05:57:56.168Z,15.60
2023-05-07T06:00:23.558Z,15.70
2023-05-07T06:02:58.713Z,15.80
2023-05-07T06:05:26.727Z,16.00
2023-05-07T06:07:55.859Z,16.10
2023-05-07T06:10:22.611Z,16.10
2023-05-07T06:12:49.748Z,16.20
2023-05-07T06:15:17.578Z,16.20
2023-05-07T06:17:45.262Z,16.30
2023-05-07T06:20:12.660Z,16.40
2023-05-07T06:22:40.833Z,16.30
2023-05-07T06:25:09.507Z,16.40
2023-05-07T06:27:36.922Z,16.40
2023-05-07T06:30:04.030Z,16.50
2023-05-07T06:32:33.830Z,16.80
2023-05-07T06:35:00.982Z,17.00
2023-05-07T06:37:27.809Z,17.00
2023-05-07T06:40:01.274Z,17.00
2023-05-07T06:42:31.150Z,17.00
2023-05-07T06:45:02.032Z,16.80
2023-05-07T06:47:31.762Z,16.90
2023-05-07T06:49:58.573Z,17.00
2023-05-07T06:52:29.610Z,17.10
2023-05-07T06:54:56.475Z,17.30
2023-05-07T06:57:27.656Z,17.40
2023-05-07T06:59:54.878Z,17.40
2023-05-07T07:02:22.517Z,17.40
2023-05-07T07:04:50.444Z,17.40
2023-05-07T07:07:17.669Z,17.40
2023-05-07T07:09:46.656Z,17.70
2023-05-07T07:12:16.150Z,17.80
2023-05-07T07:14:43.602Z,17.90
2023-05-07T07:17:10.594Z,18.30
2023-05-07T07:19:37.464Z,18.40
2023-05-07T07:22:04.553Z,18.60
2023-05-07T07:24:32.371Z,18.80
2023-05-07T07:27:02.705Z,18.90
2023-05-07T07:29:30.316Z,19.00
2023-05-07T07:31:57.732Z,19.00
2023-05-07T07:34:24.819Z,19.10
2023-05-07T07:36:51.698Z,19.20
2023-05-07T07:39:19.705Z,19.20
2023-05-07T07:41:49.086Z,19.40
2023-05-07T07:44:18.394Z,19.60
2023-05-07T07:46:50.645Z,19.70
2023-05-07T07:49:17.690Z,19.60
2023-05-07T07:51:45.064Z,19.70
2023-05-07T07:54:12.928Z,19.90
2023-05-07T07:56:40.429Z,20.00
2023-05-07T07:59:10.052Z,20.10
2023-05-07T08:01:39.765Z,20.20
2023-05-07T08:04:07.054Z,20.40
2023-05-07T08:06:38.918Z,20.60
2023-05-07T08:09:06.338Z,20.80
2023-05-07T08:11:33.886Z,21.00
2023-05-07T08:14:01.395Z,21.20
2023-05-07T08:16:30.963Z,21.40
2023-05-07T08:18:58.935Z,21.60
2023-05-07T08:21:25.854Z,21.90
2023-05-07T08:23:52.685Z,22.10
2023-05-07T08:26:19.652Z,22.30
2023-05-07T08:28:46.497Z,22.40
2023-05-07T08:31:13.266Z,22.50
2023-05-07T08:33:41.890Z,22.40
2023-05-07T08:36:08.937Z,22.50
2023-05-07T08:38:35.861Z,22.70
2023-05-07T08:41:02.727Z,22.80
2023-05-07T08:43:33.973Z,22.80
2023-05-07T08:46:03.358Z,22.90
2023-05-07T08:48:33.948Z,22.80
2023-05-07T08:51:15.020Z,22.70
2023-05-07T08:53:43.211Z,22.70
2023-05-07T08:56:16.178Z,22.70
2023-05-07T08:58:44.679Z,22.80
2023-05-07T09:01:15.147Z,22.70
2023-05-07T09:03:47.478Z,23.00
2023-05-07T09:06:16.391Z,23.20
2023-05-07T09:08:53.882Z,23.20
2023-05-07T09:11:23.804Z,23.30
2023-05-07T09:14:02.097Z,23.50
2023-05-07T09:16:32.722Z,23.50
2023-05-07T09:19:04.051Z,23.60
2023-05-07T09:21:31.088Z,23.70
2023-05-07T09:24:00.624Z,23.70
2023-05-07T09:26:36.138Z,23.50
2023-05-07T09:29:04.698Z,23.80
2023-05-07T09:31:31.695Z,23.90
2023-05-07T09:33:58.715Z,24.10
2023-05-07T09:36:28.959Z,24.20
2023-05-07T09:38:57.567Z,24.50
2023-05-07T09:41:24.750Z,24.50
2023-05-07T09:44:08.166Z,24.50
2023-05-07T09:46:42.894Z,24.80
2023-05-07T09:49:22.912Z,24.70
2023-05-07T09:51:53.606Z,25.10
2023-05-07T09:54:24.074Z,25.10
2023-05-07T09:56:57.093Z,25.00
2023-05-07T09:59:30.138Z,25.10
2023-05-07T10:02:02.789Z,24.90
2023-05-07T10:04:33.243Z,24.70
2023-05-07T10:07:01.215Z,24.60
2023-05-07T10:09:30.204Z,24.50
2023-05-07T10:11:58.115Z,24.60
2023-05-07T10:14:25.925Z,24.80
2023-05-07T10:16:55.579Z,24.80
2023-05-07T10:19:23.746Z,24.40
2023-05-07T10:22:01.042Z,24.40
2023-05-07T10:24:37.911Z,24.50
2023-05-07T10:27:13.593Z,24.20
2023-05-07T10:30:07.713Z,24.30
2023-05-07T10:32:54.923Z,24.30
2023-05-07T10:35:33.063Z,24.20
2023-05-07T10:38:03.024Z,24.30
2023-05-07T10:40:32.610Z,24.00
2023-05-07T10:43:03.403Z,23.80
2023-05-07T10:45:35.986Z,23.90
2023-05-07T10:48:31.406Z,24.10
2023-05-07T10:51:21.828Z,24.20
2023-05-07T10:54:12.744Z,24.40
2023-05-07T10:56:52.084Z,24.60
2023-05-07T10:59:24.736Z,24.40
2023-05-07T11:01:56.368Z,24.20
2023-05-07T11:04:35.905Z,23.90
2023-05-07T11:07:33.151Z,24.00
2023-05-07T11:10:06.625Z,24.10
2023-05-07T11:12:53.549Z,24.10
2023-05-07T11:15:40.595Z,24.10
2023-05-07T11:18:17.629Z,24.30
2023-05-07T11:20:55.063Z,24.50
2023-05-07T11:23:42.041Z,24.70
2023-05-07T11:26:24.897Z,24.90
2023-05-07T11:28:53.061Z,25.20
2023-05-07T11:31:26.791Z,25.40
2023-05-07T11:33:55.503Z,25.50
2023-05-07T11:36:24.341Z,25.40
2023-05-07T11:38:54.008Z,25.50
2023-05-07T11:41:22.038Z,25.50
2023-05-07T11:43:57.217Z,25.30
2023-05-07T11:46:24.330Z,25.00
2023-05-07T11:48:51.490Z,25.00
2023-05-07T11:51:23.531Z,25.10
2023-05-07T11:53:51.177Z,24.90
2023-05-07T11:56:19.105Z,25.00
2023-05-07T11:58:47.458Z,25.20
2023-05-07T12:01:14.855Z,25.30
2023-05-07T12:03:49.028Z,25.30
2023-05-07T12:06:17.880Z,25.30
2023-05-07T12:08:47.972Z,25.30
2023-05-07T12:11:18.756Z,25.40
2023-05-07T12:13:46.012Z,25.30
2023-05-07T12:16:13.588Z,25.20
2023-05-07T12:18:40.871Z,25.50
2023-05-07T12:21:08.344Z,25.30
2023-05-07T12:23:37.108Z,25.50
2023-05-07T12:26:07.085Z,25.80
2023-05-07T12:28:40.856Z,26.10
2023-05-07T12:31:08.518Z,26.20
2023-05-07T12:33:36.497Z,26.00
2023-05-07T12:36:09.791Z,26.10
2023-05-07T12:38:38.340Z,26.10
2023-05-07T12:41:05.919Z,26.20
2023-05-07T12:43:32.706Z,26.10
2023-05-07T12:46:02.790Z,25.90
2023-05-07T12:48:30.128Z,25.90
2023-05-07T12:50:58.307Z,25.90
2023-05-07T12:53:26.936Z,25.90
2023-05-07T12:55:56.656Z,25.90
2023-05-07T12:58:28.727Z,25.70
2023-05-07T13:01:00.418Z,25.60
2023-05-07T13:03:36.274Z,25.60
2023-05-07T13:06:10.983Z,25.70
2023-05-07T13:08:46.251Z,25.80
2023-05-07T13:11:14.394Z,25.80
2023-05-07T13:13:43.308Z,26.00
2023-05-07T13:16:12.147Z,26.30
2023-05-07T13:18:41.319Z,26.20
2023-05-07T13:21:08.402Z,25.90
2023-05-07T13:23:35.190Z,25.70
2023-05-07T13:26:08.544Z,25.60
2023-05-07T13:28:38.373Z,25.50
2023-05-07T13:31:05.088Z,25.30
2023-05-07T13:33:31.851Z,25.20
2023-05-07T13:35:58.825Z,25.10
2023-05-07T13:38:25.688Z,25.00
2023-05-07T13:40:52.428Z,25.10
2023-05-07T13:43:19.759Z,25.10
2023-05-07T13:45:46.527Z,25.20
2023-05-07T13:48:13.290Z,25.00
2023-05-07T13:50:40.289Z,24.70
2023-05-07T13:53:09.338Z,24.60
2023-05-07T13:55:36.062Z,24.50
2023-05-07T13:58:07.531Z,24.40
2023-05-07T14:00:35.776Z,24.00
2023-05-07T14:03:02.639Z,23.20
2023-05-07T14:05:29.414Z,22.20
2023-05-07T14:07:57.864Z,21.60
2023-05-07T14:10:25.992Z,20.30
2023-05-07T14:12:53.702Z,18.80
2023-05-07T14:15:20.572Z,17.50
2023-05-07T14:17:47.878Z,16.80
2023-05-07T14:20:15.045Z,16.40
2023-05-07T14:22:42.023Z,16.10
2023-05-07T14:25:10.697Z,15.90
2023-05-07T14:27:38.051Z,15.70
2023-05-07T14:30:05.453Z,15.50
2023-05-07T14:32:32.972Z,15.50
2023-05-07T14:34:59.737Z,15.50
2023-05-07T14:37:26.531Z,15.50
2023-05-07T14:39:53.288Z,15.40
2023-05-07T14:42:20.019Z,15.60
2023-05-07T14:44:49.308Z,15.60
2023-05-07T14:47:19.992Z,15.50
2023-05-07T14:49:47.073Z,15.60
2023-05-07T14:52:13.964Z,15.50
2023-05-07T14:54:40.850Z,15.60
2023-05-07T14:57:09.155Z,15.50
2023-05-07T14:59:35.990Z,15.50
2023-05-07T15:02:05.262Z,15.50
2023-05-07T15:04:36.226Z,15.50
2023-05-07T15:07:03.002Z,15.40
2023-05-07T15:09:30.491Z,15.40
2023-05-07T15:11:57.672Z,15.40
2023-05-07T15:14:26.516Z,15.40
2023-05-07T15:16:53.201Z,15.40
2023-05-07T15:19:19.911Z,15.40
2023-05-07T15:21:54.301Z,15.40
2023-05-07T15:24:23.924Z,15.40
2023-05-07T15:26:52.751Z,15.30
2023-05-07T15:29:19.662Z,15.40
2023-05-07T15:31:46.718Z,15.30
2023-05-07T15:34:15.794Z,15.30
2023-05-07T15:36:42.589Z,15.20
2023-05-07T15:39:09.339Z,15.20
2023-05-07T15:41:37.856Z,15.00
2023-05-07T15:44:04.949Z,14.80
2023-05-07T15:46:31.775Z,14.70
2023-05-07T15:48:58.744Z,14.70
2023-05-07T15:51:25.565Z,14.60
2023-05-07T15:53:53.346Z,14.70
2023-05-07T15:56:20.074Z,14.60
2023-05-07T15:58:46.829Z,14.50
2023-05-07T16:01:15.467Z,14.50
2023-05-07T16:03:42.794Z,14.50
2023-05-07T16:06:12.449Z,14.50
2023-05-07T16:08:44.124Z,14.50
2023-05-07T16:11:11.002Z,14.50
2023-05-07T16:13:38.019Z,14.50
2023-05-07T16:16:05.102Z,14.60
2023-05-07T16:18:31.964Z,14.60
2023-05-07T16:21:00.558Z,14.70
2023-05-07T16:23:27.540Z,14.70
2023-05-07T16:25:54.266Z,14.70
2023-05-07T16:28:21.564Z,14.70
2023-05-07T16:30:49.140Z,14.80
2023-05-07T16:33:15.988Z,14.80
2023-05-07T16:35:47.435Z,14.80
2023-05-07T16:38:14.105Z,14.80
2023-05-07T16:40:41.683Z,14.80
2023-05-07T16:43:08.703Z,14.90
2023-05-07T16:45:35.471Z,14.80
2023-05-07T16:48:03.379Z,14.70
2023-05-07T16:50:30.456Z,14.70
2023-05-07T16:52:57.213Z,14.60
2023-05-07T16:55:24.164Z,14.60
2023-05-07T16:57:50.881Z,14.60
2023-05-07T17:00:18.076Z,14.60
2023-05-07T17:02:45.805Z,14.60
2023-05-07T17:05:13.190Z,14.60
2023-05-07T17:07:40.324Z,14.70
2023-05-07T17:10:07.792Z,14.70
2023-05-07T17:12:35.924Z,14.70
2023-05-07T17:15:03.551Z,14.70
2023-05-07T17:17:30.472Z,14.70
2023-05-07T17:19:57.365Z,14.70
2023-05-07T17:22:25.051Z,14.70
2023-05-07T17:24:52.164Z,14.80
2023-05-07T17:27:19.012Z,14.90
2023-05-07T17:29:45.717Z,14.90
2023-05-07T17:32:12.525Z,14.90
2023-05-07T17:34:39.301Z,15.00
2023-05-07T17:37:06.007Z,15.00
2023-05-07T17:39:32.958Z,15.00
2023-05-07T17:41:59.785Z,15.00
2023-05-07T17:44:26.576Z,15.00
2023-05-07T17:46:53.591Z,15.00
2023-05-07T17:49:20.394Z,15.00
2023-05-07T17:51:54.833Z,15.10
2023-05-07T17:54:26.018Z,15.10
2023-05-07T17:56:53.167Z,15.10
2023-05-07T17:59:19.929Z,15.10
2023-05-07T18:01:46.747Z,15.10
2023-05-07T18:04:13.629Z,15.20
2023-05-07T18:06:42.071Z,15.10
2023-05-07T18:09:08.968Z,15.10
2023-05-07T18:11:37.457Z,15.10
2023-05-07T18:14:08.308Z,15.10
2023-05-07T18:16:35.340Z,15.10
2023-05-07T18:19:02.480Z,15.10
2023-05-07T18:21:29.464Z,15.10
2023-05-07T18:23:56.206Z,15.10
2023-05-07T18:26:22.996Z,15.10
2023-05-07T18:28:49.738Z,15.10
2023-05-07T18:31:16.484Z,15.10
2023-05-07T18:33:43.233Z,15.20
2023-05-07T18:36:09.971Z,15.10
2023-05-07T18:38:36.729Z,15.10
2023-05-07T18:41:04.438Z,15.10
2023-05-07T18:43:34.343Z,15.20
2023-05-07T18:46:01.286Z,15.20
2023-05-07T18:48:28.171Z,15.20
2023-05-07T18:50:54.974Z,15.10
2023-05-07T18:53:21.735Z,15.20
2023-05-07T18:55:52.763Z,15.20
2023-05-07T18:58:20.415Z,15.20
2023-05-07T19:00:51.508Z,15.20
2023-05-07T19:03:18.458Z,15.20
2023-05-07T19:05:45.990Z,15.10
2023-05-07T19:08:12.865Z,15.10
2023-05-07T19:10:39.761Z,15.00
2023-05-07T19:13:06.800Z,15.00
2023-05-07T19:15:33.952Z,15.00
2023-05-07T19:18:00.949Z,15.00
2023-05-07T19:20:28.653Z,15.00
2023-05-07T19:22:55.992Z,15.00
2023-05-07T19:25:22.760Z,15.00
2023-05-07T19:27:51.050Z,15.00
2023-05-07T19:30:18.880Z,15.00
2023-05-07T19:32:45.929Z,14.90
2023-05-07T19:35:13.237Z,14.90
2023-05-07T19:37:40.412Z,14.90
2023-05-07T19:40:08.743Z,14.90
2023-05-07T19:42:36.166Z,14.90
2023-05-07T19:45:04.266Z,14.90
2023-05-07T19:47:31.226Z,14.90
2023-05-07T19:49:58.026Z,15.00
2023-05-07T19:52:24.773Z,15.00
2023-05-07T19:54:56.215Z,15.00
2023-05-07T19:57:23.186Z,15.00
2023-05-07T19:59:49.916Z,15.00
2023-05-07T20:02:16.931Z,15.00
2023-05-07T20:04:43.727Z,15.00
2023-05-07T20:07:10.616Z,14.90
2023-05-07T20:09:37.361Z,14.90
2023-05-07T20:12:04.412Z,14.90
2023-05-07T20:14:32.120Z,14.90
2023-05-07T20:16:58.933Z,14.90
2023-05-07T20:19:25.998Z,14.90
2023-05-07T20:21:52.959Z,14.90
2023-05-07T20:24:19.721Z,14.90
2023-05-07T20:26:46.864Z,14.80
2023-05-07T20:29:13.696Z,14.90
2023-05-07T20:31:40.652Z,14.90
2023-05-07T20:34:07.587Z,14.90
2023-05-07T20:36:34.779Z,14.90
2023-05-07T20:39:01.566Z,14.80
2023-05-07T20:41:28.296Z,14.80
2023-05-07T20:43:54.999Z,14.90
2023-05-07T20:46:22.614Z,14.90
2023-05-07T20:48:50.027Z,15.00
2023-05-07T20:51:17.134Z,14.90
2023-05-07T20:53:47.820Z,15.00
2023-05-07T20:56:15.463Z,15.00
2023-05-07T20:58:42.195Z,15.00
2023-05-07T21:01:09.053Z,15.00
2023-05-07T21:03:35.925Z,14.90
2023-05-07T21:06:04.054Z,15.00
2023-05-07T21:08:31.115Z,14.90
2023-05-07T21:10:58.112Z,14.90
2023-05-07T21:13:25.160Z,14.80
2023-05-07T21:15:52.102Z,14.90
2023-05-07T21:18:19.354Z,14.80
2023-05-07T21:20:46.250Z,14.80
2023-05-07T21:23:12.982Z,14.80
2023-05-07T21:25:41.134Z,14.80
2023-05-07T21:28:08.927Z,14.80
2023-05-07T21:30:36.502Z,14.80
2023-05-07T21:33:04.453Z,14.90
2023-05-07T21:35:32.876Z,14.70
2023-05-07T21:38:02.397Z,14.70
2023-05-07T21:40:29.472Z,14.60
2023-05-07T21:42:56.212Z,14.60
2023-05-07T21:45:23.028Z,14.60
2023-05-07T21:47:49.783Z,14.60
2023-05-07T21:50:17.198Z,14.70
2023-05-07T21:52:43.905Z,14.70
2023-05-07T21:55:10.808Z,14.70
2023-05-07T21:57:41.853Z,14.70
2023-05-07T22:00:09.425Z,14.70
2023-05-07T22:02:36.905Z,14.70
2023-05-07T22:05:04.639Z,14.70
2023-05-07T22:07:34.473Z,14.60
2023-05-07T22:10:01.467Z,14.60
2023-05-07T22:12:28.191Z,14.60
2023-05-07T22:14:54.936Z,14.60
2023-05-07T22:17:21.844Z,14.70
2023-05-07T22:19:48.564Z,14.70
2023-05-07T22:22:17.230Z,14.60
2023-05-07T22:24:43.913Z,14.60
2023-05-07T22:27:10.757Z,14.60
2023-05-07T22:29:39.840Z,14.60
2023-05-07T22:32:06.697Z,14.60
2023-05-07T22:34:33.706Z,14.60
2023-05-07T22:37:00.519Z,14.60
2023-05-07T22:39:27.349Z,14.70
2023-05-07T22:41:54.032Z,14.70
2023-05-07T22:44:21.028Z,14.70
2023-05-07T22:46:49.735Z,14.70
2023-05-07T22:49:16.568Z,14.80
2023-05-07T22:51:43.236Z,14.70
2023-05-07T22:54:11.153Z,14.80
2023-05-07T22:56:37.932Z,14.70
2023-05-07T22:59:04.657Z,14.70
2023-05-07T23:01:31.469Z,14.70
2023-05-07T23:03:58.223Z,14.70
2023-05-07T23:06:24.968Z,14.70
2023-05-07T23:08:53.052Z,14.70
2023-05-07T23:11:19.782Z,14.70
2023-05-07T23:13:46.697Z,14.70
2023-05-07T23:16:13.440Z,14.70
2023-05-07T23:18:40.454Z,14.60
2023-05-07T23:21:07.162Z,14.60
2023-05-07T23:23:35.208Z,14.60
2023-05-07T23:26:02.079Z,14.60
2023-05-07T23:28:28.875Z,14.70
2023-05-07T23:30:55.802Z,14.70
2023-05-07T23:33:22.718Z,14.60
2023-05-07T23:35:49.410Z,14.60
2023-05-07T23:38:16.113Z,14.60
2023-05-07T23:40:42.919Z,14.60
2023-05-07T23:43:09.606Z,14.60
2023-05-07T23:45:36.361Z,14.60
2023-05-07T23:48:03.046Z,14.60
2023-05-07T23:50:29.853Z,14.60
2023-05-07T23:52:56.539Z,14.60
2023-05-07T23:55:23.297Z,14.60
2023-05-07T23:57:50.015Z,14.60
